sensor_id;sensor_type;location;lat;lon;timestamp;pressure;altitude;pressure_sealevel;temperature;humidity
48053;BME280;33824;51.600;5.718;2022-08-19T00:00:44;101128.88;;;19.57;80.29
48053;BME280;33824;51.600;5.718;2022-08-19T00:03:09;101126.75;;;19.59;80.42
48053;BME280;33824;51.600;5.718;2022-08-19T00:05:36;101125.97;;;19.59;80.14
48053;BME280;33824;51.600;5.718;2022-08-19T00:08:02;101125.97;;;19.59;80.49
48053;BME280;33824;51.600;5.718;2022-08-19T00:10:28;101134.06;;;19.59;80.73
48053;BME280;33824;51.600;5.718;2022-08-19T00:12:53;101126.38;;;19.56;79.98
48053;BME280;33824;51.600;5.718;2022-08-19T00:15:20;101128.97;;;19.51;79.77
48053;BME280;33824;51.600;5.718;2022-08-19T00:17:47;101129.41;;;19.48;79.70
48053;BME280;33824;51.600;5.718;2022-08-19T00:20:16;101130.69;;;19.45;79.64
48053;BME280;33824;51.600;5.718;2022-08-19T00:22:44;101136.69;;;19.47;79.63
48053;BME280;33824;51.600;5.718;2022-08-19T00:25:10;101149.59;;;19.45;79.66
48053;BME280;33824;51.600;5.718;2022-08-19T00:27:35;101140.25;;;19.41;79.65
48053;BME280;33824;51.600;5.718;2022-08-19T00:30:01;101143.63;;;19.37;79.29
48053;BME280;33824;51.600;5.718;2022-08-19T00:32:28;101148.44;;;19.35;79.08
48053;BME280;33824;51.600;5.718;2022-08-19T00:34:54;101144.31;;;19.32;79.07
48053;BME280;33824;51.600;5.718;2022-08-19T00:37:21;101141.00;;;19.30;78.95
48053;BME280;33824;51.600;5.718;2022-08-19T00:39:49;101146.03;;;19.27;79.08
48053;BME280;33824;51.600;5.718;2022-08-19T00:42:17;101145.88;;;19.22;79.12
48053;BME280;33824;51.600;5.718;2022-08-19T00:44:43;101143.63;;;19.18;79.95
48053;BME280;33824;51.600;5.718;2022-08-19T00:47:09;101141.75;;;19.19;80.39
48053;BME280;33824;51.600;5.718;2022-08-19T00:49:37;101140.69;;;19.20;81.04
48053;BME280;33824;51.600;5.718;2022-08-19T00:52:18;101140.38;;;19.10;81.81
48053;BME280;33824;51.600;5.718;2022-08-19T00:54:45;101138.22;;;19.18;81.56
48053;BME280;33824;51.600;5.718;2022-08-19T00:57:15;101138.06;;;19.13;81.59
48053;BME280;33824;51.600;5.718;2022-08-19T00:59:44;101139.94;;;19.13;81.91
48053;BME280;33824;51.600;5.718;2022-08-19T01:02:11;101141.81;;;19.12;81.77
48053;BME280;33824;51.600;5.718;2022-08-19T01:04:37;101138.72;;;19.09;82.29
48053;BME280;33824;51.600;5.718;2022-08-19T01:07:03;101135.41;;;19.07;82.26
48053;BME280;33824;51.600;5.718;2022-08-19T01:09:29;101132.31;;;19.03;82.58
48053;BME280;33824;51.600;5.718;2022-08-19T01:11:55;101143.00;;;18.98;83.66
48053;BME280;33824;51.600;5.718;2022-08-19T01:14:21;101150.69;;;18.95;84.04
48053;BME280;33824;51.600;5.718;2022-08-19T01:16:47;101153.84;;;18.92;83.80
48053;BME280;33824;51.600;5.718;2022-08-19T01:19:27;101149.59;;;18.78;nan
48053;BME280;33824;51.600;5.718;2022-08-19T01:24:45;101149.00;;;18.76;82.83
48053;BME280;33824;51.600;5.718;2022-08-19T01:27:11;101142.97;;;18.74;82.65
48053;BME280;33824;51.600;5.718;2022-08-19T01:29:39;101144.47;;;18.69;82.72
48053;BME280;33824;51.600;5.718;2022-08-19T01:32:07;101141.97;;;18.68;82.74
48053;BME280;33824;51.600;5.718;2022-08-19T01:34:33;101142.81;;;18.68;82.72
48053;BME280;33824;51.600;5.718;2022-08-19T01:36:59;101147.16;;;18.69;82.64
48053;BME280;33824;51.600;5.718;2022-08-19T01:39:27;101148.22;;;18.68;82.55
48053;BME280;33824;51.600;5.718;2022-08-19T01:41:53;101149.03;;;18.69;82.75
48053;BME280;33824;51.600;5.718;2022-08-19T01:44:20;101144.69;;;18.68;82.58
48053;BME280;33824;51.600;5.718;2022-08-19T01:46:49;101146.56;;;18.67;82.39
48053;BME280;33824;51.600;5.718;2022-08-19T01:49:18;101147.81;;;18.65;82.53
48053;BME280;33824;51.600;5.718;2022-08-19T01:51:45;101153.84;;;18.67;82.02
48053;BME280;33824;51.600;5.718;2022-08-19T01:54:13;101157.66;;;18.59;81.82
48053;BME280;33824;51.600;5.718;2022-08-19T01:56:40;101155.59;;;18.55;81.74
48053;BME280;33824;51.600;5.718;2022-08-19T01:59:17;101155.44;;;18.43;81.73
48053;BME280;33824;51.600;5.718;2022-08-19T02:01:44;101158.31;;;18.48;81.74
48053;BME280;33824;51.600;5.718;2022-08-19T02:04:09;101162.25;;;18.46;81.42
48053;BME280;33824;51.600;5.718;2022-08-19T02:06:35;101164.19;;;18.39;81.35
48053;BME280;33824;51.600;5.718;2022-08-19T02:09:03;101168.16;;;18.36;81.54
48053;BME280;33824;51.600;5.718;2022-08-19T02:11:31;101166.72;;;18.34;81.91
48053;BME280;33824;51.600;5.718;2022-08-19T02:14:00;101170.47;;;18.33;82.28
48053;BME280;33824;51.600;5.718;2022-08-19T02:16:27;101175.03;;;18.32;82.37
48053;BME280;33824;51.600;5.718;2022-08-19T02:18:53;101171.69;;;18.30;82.15
48053;BME280;33824;51.600;5.718;2022-08-19T02:21:22;101176.31;;;18.23;81.66
48053;BME280;33824;51.600;5.718;2022-08-19T02:23:49;101175.72;;;18.21;82.03
48053;BME280;33824;51.600;5.718;2022-08-19T02:26:15;101168.25;;;18.16;82.22
48053;BME280;33824;51.600;5.718;2022-08-19T02:28:41;101169.28;;;18.15;82.74
48053;BME280;33824;51.600;5.718;2022-08-19T02:31:13;101167.66;;;18.08;82.66
48053;BME280;33824;51.600;5.718;2022-08-19T02:33:40;101170.75;;;18.11;83.68
48053;BME280;33824;51.600;5.718;2022-08-19T02:36:07;101174.09;;;18.13;83.84
48053;BME280;33824;51.600;5.718;2022-08-19T02:38:34;101172.22;;;18.14;83.76
48053;BME280;33824;51.600;5.718;2022-08-19T02:41:02;101179.69;;;18.12;83.91
48053;BME280;33824;51.600;5.718;2022-08-19T02:43:29;101175.97;;;18.13;84.14
48053;BME280;33824;51.600;5.718;2022-08-19T02:45:55;101179.50;;;18.13;84.01
48053;BME280;33824;51.600;5.718;2022-08-19T02:48:23;101177.38;;;18.15;84.10
48053;BME280;33824;51.600;5.718;2022-08-19T02:50:50;101182.78;;;18.15;83.82
48053;BME280;33824;51.600;5.718;2022-08-19T02:53:24;101180.31;;;18.14;83.51
48053;BME280;33824;51.600;5.718;2022-08-19T02:55:51;101182.19;;;18.13;83.61
48053;BME280;33824;51.600;5.718;2022-08-19T02:58:17;101183.66;;;18.09;83.56
48053;BME280;33824;51.600;5.718;2022-08-19T03:00:47;101177.44;;;18.09;83.77
48053;BME280;33824;51.600;5.718;2022-08-19T03:03:14;101176.78;;;18.13;83.94
48053;BME280;33824;51.600;5.718;2022-08-19T03:05:39;101184.50;;;18.10;84.28
48053;BME280;33824;51.600;5.718;2022-08-19T03:08:05;101178.47;;;18.08;83.84
48053;BME280;33824;51.600;5.718;2022-08-19T03:10:32;101181.59;;;18.05;83.70
48053;BME280;33824;51.600;5.718;2022-08-19T03:12:58;101174.78;;;18.02;83.92
48053;BME280;33824;51.600;5.718;2022-08-19T03:15:23;101177.28;;;17.97;83.68
48053;BME280;33824;51.600;5.718;2022-08-19T03:17:49;101182.88;;;17.96;83.58
48053;BME280;33824;51.600;5.718;2022-08-19T03:20:14;101192.63;;;17.97;83.41
48053;BME280;33824;51.600;5.718;2022-08-19T03:22:40;101191.78;;;17.96;83.73
48053;BME280;33824;51.600;5.718;2022-08-19T03:25:05;101188.25;;;17.96;83.48
48053;BME280;33824;51.600;5.718;2022-08-19T03:27:31;101182.88;;;17.96;83.42
48053;BME280;33824;51.600;5.718;2022-08-19T03:29:58;101185.56;;;17.96;83.62
48053;BME280;33824;51.600;5.718;2022-08-19T03:32:24;101193.66;;;17.96;83.53
48053;BME280;33824;51.600;5.718;2022-08-19T03:34:49;101192.88;;;17.95;83.52
48053;BME280;33824;51.600;5.718;2022-08-19T03:37:16;101192.88;;;17.95;83.75
48053;BME280;33824;51.600;5.718;2022-08-19T03:39:42;101193.06;;;17.94;83.42
48053;BME280;33824;51.600;5.718;2022-08-19T03:42:09;101185.41;;;17.91;83.44
48053;BME280;33824;51.600;5.718;2022-08-19T03:44:35;101193.06;;;17.94;83.78
48053;BME280;33824;51.600;5.718;2022-08-19T03:47:03;101191.41;;;17.93;83.72
48053;BME280;33824;51.600;5.718;2022-08-19T03:49:30;101182.47;;;17.92;83.59
48053;BME280;33824;51.600;5.718;2022-08-19T03:51:58;101193.25;;;17.92;83.41
48053;BME280;33824;51.600;5.718;2022-08-19T03:54:25;101187.06;;;17.92;83.41
48053;BME280;33824;51.600;5.718;2022-08-19T03:56:53;101185.16;;;17.92;83.57
48053;BME280;33824;51.600;5.718;2022-08-19T03:59:25;101187.47;;;17.89;83.60
48053;BME280;33824;51.600;5.718;2022-08-19T04:01:52;101188.31;;;17.89;83.50
48053;BME280;33824;51.600;5.718;2022-08-19T04:04:18;101192.47;;;17.92;83.76
48053;BME280;33824;51.600;5.718;2022-08-19T04:06:44;101191.81;;;17.90;83.74
48053;BME280;33824;51.600;5.718;2022-08-19T04:09:10;101188.31;;;17.89;84.07
48053;BME280;33824;51.600;5.718;2022-08-19T04:11:42;101191.63;;;17.85;83.92
48053;BME280;33824;51.600;5.718;2022-08-19T04:14:10;101189.34;;;17.88;84.03
48053;BME280;33824;51.600;5.718;2022-08-19T04:16:35;101185.00;;;17.87;84.09
48053;BME280;33824;51.600;5.718;2022-08-19T04:19:03;101191.03;;;17.83;83.94
48053;BME280;33824;51.600;5.718;2022-08-19T04:21:29;101176.50;;;17.77;83.85
48053;BME280;33824;51.600;5.718;2022-08-19T04:23:56;101187.31;;;17.77;84.13
48053;BME280;33824;51.600;5.718;2022-08-19T04:26:27;101183.19;;;17.68;84.34
48053;BME280;33824;51.600;5.718;2022-08-19T04:28:55;101177.56;;;17.69;84.59
48053;BME280;33824;51.600;5.718;2022-08-19T04:31:23;101175.09;;;17.68;84.44
48053;BME280;33824;51.600;5.718;2022-08-19T04:33:59;101165.81;;;17.57;84.28
48053;BME280;33824;51.600;5.718;2022-08-19T04:36:30;101172.22;;;17.63;84.33
48053;BME280;33824;51.600;5.718;2022-08-19T04:38:59;101168.25;;;17.65;84.56
48053;BME280;33824;51.600;5.718;2022-08-19T04:41:25;101172.19;;;17.69;85.05
48053;BME280;33824;51.600;5.718;2022-08-19T04:44:10;101165.34;;;17.67;85.31
48053;BME280;33824;51.600;5.718;2022-08-19T04:46:36;101169.47;;;17.69;85.93
48053;BME280;33824;51.600;5.718;2022-08-19T04:49:03;101163.28;;;17.69;85.66
48053;BME280;33824;51.600;5.718;2022-08-19T04:51:32;101168.69;;;17.69;85.73
48053;BME280;33824;51.600;5.718;2022-08-19T04:53:58;101168.25;;;17.72;85.79
48053;BME280;33824;51.600;5.718;2022-08-19T04:56:26;101172.38;;;17.74;85.51
48053;BME280;33824;51.600;5.718;2022-08-19T04:58:53;101174.44;;;17.79;85.46
48053;BME280;33824;51.600;5.718;2022-08-19T05:01:32;101184.19;;;17.73;87.33
48053;BME280;33824;51.600;5.718;2022-08-19T05:03:59;101176.09;;;17.80;87.46
48053;BME280;33824;51.600;5.718;2022-08-19T05:06:26;101175.88;;;17.82;87.44
48053;BME280;33824;51.600;5.718;2022-08-19T05:08:52;101176.28;;;17.85;87.50
48053;BME280;33824;51.600;5.718;2022-08-19T05:11:23;101186.91;;;17.80;87.73
48053;BME280;33824;51.600;5.718;2022-08-19T05:13:51;101189.56;;;17.87;88.18
48053;BME280;33824;51.600;5.718;2022-08-19T05:16:19;101193.09;;;17.87;88.37
48053;BME280;33824;51.600;5.718;2022-08-19T05:18:45;101201.78;;;17.89;88.53
48053;BME280;33824;51.600;5.718;2022-08-19T05:21:30;101196.81;;;17.86;89.08
48053;BME280;33824;51.600;5.718;2022-08-19T05:24:16;101200.13;;;17.88;89.25
48053;BME280;33824;51.600;5.718;2022-08-19T05:26:44;101209.44;;;17.92;90.15
48053;BME280;33824;51.600;5.718;2022-08-19T05:29:12;101215.03;;;17.97;90.65
48053;BME280;33824;51.600;5.718;2022-08-19T05:31:42;101208.38;;;18.06;90.54
48053;BME280;33824;51.600;5.718;2022-08-19T05:34:08;101223.50;;;18.14;90.59
48053;BME280;33824;51.600;5.718;2022-08-19T05:36:38;101214.31;;;18.21;90.35
48053;BME280;33824;51.600;5.718;2022-08-19T05:39:09;101216.94;;;18.35;90.16
48053;BME280;33824;51.600;5.718;2022-08-19T05:41:41;101217.13;;;18.40;90.15
48053;BME280;33824;51.600;5.718;2022-08-19T05:44:06;101218.31;;;18.57;90.09
48053;BME280;33824;51.600;5.718;2022-08-19T05:46:36;101223.84;;;18.68;90.19
48053;BME280;33824;51.600;5.718;2022-08-19T05:49:04;101230.00;;;18.82;90.26
48053;BME280;33824;51.600;5.718;2022-08-19T05:51:30;101228.47;;;18.93;90.32
48053;BME280;33824;51.600;5.718;2022-08-19T05:53:55;101222.53;;;19.02;90.26
48053;BME280;33824;51.600;5.718;2022-08-19T05:56:20;101224.97;;;19.10;90.12
48053;BME280;33824;51.600;5.718;2022-08-19T05:58:46;101219.09;;;19.20;89.87
48053;BME280;33824;51.600;5.718;2022-08-19T06:01:17;101217.91;;;19.34;89.59
48053;BME280;33824;51.600;5.718;2022-08-19T06:03:43;101217.66;;;19.42;89.38
48053;BME280;33824;51.600;5.718;2022-08-19T06:06:13;101215.34;;;19.46;89.09
48053;BME280;33824;51.600;5.718;2022-08-19T06:08:39;101207.97;;;19.53;88.80
48053;BME280;33824;51.600;5.718;2022-08-19T06:11:20;101206.94;;;19.54;88.45
48053;BME280;33824;51.600;5.718;2022-08-19T06:13:48;101207.03;;;19.66;88.14
48053;BME280;33824;51.600;5.718;2022-08-19T06:16:17;101209.91;;;19.71;87.36
48053;BME280;33824;51.600;5.718;2022-08-19T06:18:55;101212.59;;;19.71;87.27
48053;BME280;33824;51.600;5.718;2022-08-19T06:21:23;101220.47;;;19.90;86.99
48053;BME280;33824;51.600;5.718;2022-08-19T06:23:51;101224.38;;;19.94;86.89
48053;BME280;33824;51.600;5.718;2022-08-19T06:26:18;101214.28;;;20.01;86.61
48053;BME280;33824;51.600;5.718;2022-08-19T06:28:44;101213.69;;;20.18;85.88
48053;BME280;33824;51.600;5.718;2022-08-19T06:31:23;101211.44;;;20.15;85.37
48053;BME280;33824;51.600;5.718;2022-08-19T06:33:49;101204.97;;;20.34;85.14
48053;BME280;33824;51.600;5.718;2022-08-19T06:36:25;101206.25;;;20.31;84.53
48053;BME280;33824;51.600;5.718;2022-08-19T06:39:00;101216.53;;;20.41;84.36
48053;BME280;33824;51.600;5.718;2022-08-19T06:41:27;101218.34;;;20.58;83.89
48053;BME280;33824;51.600;5.718;2022-08-19T06:43:54;101210.88;;;20.72;83.48
48053;BME280;33824;51.600;5.718;2022-08-19T06:46:23;101208.53;;;20.76;83.23
48053;BME280;33824;51.600;5.718;2022-08-19T06:48:49;101211.84;;;20.89;82.72
48053;BME280;33824;51.600;5.718;2022-08-19T06:51:17;101207.88;;;21.03;82.14
48053;BME280;33824;51.600;5.718;2022-08-19T06:53:53;101200.38;;;21.17;82.29
48053;BME280;33824;51.600;5.718;2022-08-19T06:56:24;101199.66;;;21.33;81.35
48053;BME280;33824;51.600;5.718;2022-08-19T06:58:50;101208.84;;;21.44;80.92
48053;BME280;33824;51.600;5.718;2022-08-19T07:01:19;101206.97;;;21.56;80.73
48053;BME280;33824;51.600;5.718;2022-08-19T07:03:45;101207.88;;;21.62;80.14
48053;BME280;33824;51.600;5.718;2022-08-19T07:06:14;101205.88;;;21.69;79.70
48053;BME280;33824;51.600;5.718;2022-08-19T07:08:43;101205.50;;;21.77;79.62
48053;BME280;33824;51.600;5.718;2022-08-19T07:11:11;101206.94;;;21.91;79.30
48053;BME280;33824;51.600;5.718;2022-08-19T07:13:38;101216.47;;;22.05;78.95
48053;BME280;33824;51.600;5.718;2022-08-19T07:16:08;101206.06;;;22.14;78.71
48053;BME280;33824;51.600;5.718;2022-08-19T07:18:34;101207.06;;;22.24;78.03
48053;BME280;33824;51.600;5.718;2022-08-19T07:21:08;101222.69;;;22.45;77.77
48053;BME280;33824;51.600;5.718;2022-08-19T07:23:34;101218.38;;;22.61;77.35
48053;BME280;33824;51.600;5.718;2022-08-19T07:26:27;101218.84;;;22.70;76.22
48053;BME280;33824;51.600;5.718;2022-08-19T07:28:54;101220.09;;;22.95;75.73
48053;BME280;33824;51.600;5.718;2022-08-19T07:31:23;101221.00;;;23.01;75.83
48053;BME280;33824;51.600;5.718;2022-08-19T07:33:50;101229.88;;;23.13;75.18
48053;BME280;33824;51.600;5.718;2022-08-19T07:36:19;101225.19;;;23.25;74.83
48053;BME280;33824;51.600;5.718;2022-08-19T07:38:48;101226.63;;;23.28;74.08
48053;BME280;33824;51.600;5.718;2022-08-19T07:41:17;101225.03;;;23.32;74.11
48053;BME280;33824;51.600;5.718;2022-08-19T07:43:43;101231.53;;;23.48;73.63
48053;BME280;33824;51.600;5.718;2022-08-19T07:46:10;101235.00;;;23.60;72.91
48053;BME280;33824;51.600;5.718;2022-08-19T07:48:35;101240.50;;;23.81;72.82
48053;BME280;33824;51.600;5.718;2022-08-19T07:51:04;101247.53;;;23.99;72.42
48053;BME280;33824;51.600;5.718;2022-08-19T07:53:31;101239.75;;;24.08;71.32
48053;BME280;33824;51.600;5.718;2022-08-19T07:55:58;101242.06;;;24.16;71.29
48053;BME280;33824;51.600;5.718;2022-08-19T07:58:27;101231.59;;;24.29;70.50
48053;BME280;33824;51.600;5.718;2022-08-19T08:00:53;101235.25;;;24.40;70.51
48053;BME280;33824;51.600;5.718;2022-08-19T08:03:20;101229.19;;;24.60;69.89
48053;BME280;33824;51.600;5.718;2022-08-19T08:06:07;101235.34;;;24.77;69.68
48053;BME280;33824;51.600;5.718;2022-08-19T08:08:51;101237.13;;;24.88;68.69
48053;BME280;33824;51.600;5.718;2022-08-19T08:11:35;101245.88;;;24.90;68.01
48053;BME280;33824;51.600;5.718;2022-08-19T08:14:01;101235.50;;;24.87;68.02
48053;BME280;33824;51.600;5.718;2022-08-19T08:16:27;101249.22;;;24.97;68.01
48053;BME280;33824;51.600;5.718;2022-08-19T08:18:55;101253.53;;;24.93;66.68
48053;BME280;33824;51.600;5.718;2022-08-19T08:21:20;101254.00;;;24.85;66.60
48053;BME280;33824;51.600;5.718;2022-08-19T08:23:46;101254.06;;;24.90;66.44
48053;BME280;33824;51.600;5.718;2022-08-19T08:26:11;101262.84;;;24.97;66.55
48053;BME280;33824;51.600;5.718;2022-08-19T08:28:38;101266.16;;;24.99;65.79
48053;BME280;33824;51.600;5.718;2022-08-19T08:31:03;101254.25;;;25.15;66.07
48053;BME280;33824;51.600;5.718;2022-08-19T08:33:29;101254.38;;;25.30;65.43
48053;BME280;33824;51.600;5.718;2022-08-19T08:35:55;101264.41;;;25.52;64.74
48053;BME280;33824;51.600;5.718;2022-08-19T08:38:21;101262.28;;;25.59;64.14
48053;BME280;33824;51.600;5.718;2022-08-19T08:40:52;101260.72;;;25.73;63.51
48053;BME280;33824;51.600;5.718;2022-08-19T08:46:13;101267.91;;;25.89;63.16
48053;BME280;33824;51.600;5.718;2022-08-19T08:48:54;101263.97;;;26.17;61.88
48053;BME280;33824;51.600;5.718;2022-08-19T08:51:29;101262.38;;;26.26;62.14
48053;BME280;33824;51.600;5.718;2022-08-19T08:53:59;101257.75;;;26.32;60.51
48053;BME280;33824;51.600;5.718;2022-08-19T08:56:25;101257.25;;;26.45;61.11
48053;BME280;33824;51.600;5.718;2022-08-19T09:01:42;101254.75;;;26.28;60.07
48053;BME280;33824;51.600;5.718;2022-08-19T09:04:07;101255.03;;;26.37;59.45
48053;BME280;33824;51.600;5.718;2022-08-19T09:09:20;101254.31;;;26.66;56.92
48053;BME280;33824;51.600;5.718;2022-08-19T09:12:00;101258.94;;;26.71;57.39
48053;BME280;33824;51.600;5.718;2022-08-19T09:14:47;101251.03;;;26.75;55.68
48053;BME280;33824;51.600;5.718;2022-08-19T09:17:14;101246.97;;;27.02;57.36
48053;BME280;33824;51.600;5.718;2022-08-19T09:20:03;101258.22;;;27.16;56.78
48053;BME280;33824;51.600;5.718;2022-08-19T09:22:32;101256.00;;;27.38;56.75
48053;BME280;33824;51.600;5.718;2022-08-19T09:24:57;101249.97;;;27.36;56.42
48053;BME280;33824;51.600;5.718;2022-08-19T09:27:24;101254.91;;;26.94;56.90
48053;BME280;33824;51.600;5.718;2022-08-19T09:29:51;101256.69;;;26.33;58.02
48053;BME280;33824;51.600;5.718;2022-08-19T09:32:16;101258.88;;;26.36;59.64
48053;BME280;33824;51.600;5.718;2022-08-19T09:34:43;101258.00;;;26.30;59.18
48053;BME280;33824;51.600;5.718;2022-08-19T09:37:09;101255.50;;;26.18;59.36
48053;BME280;33824;51.600;5.718;2022-08-19T09:39:35;101257.19;;;26.30;59.56
48053;BME280;33824;51.600;5.718;2022-08-19T09:42:00;101263.56;;;26.50;59.53
48053;BME280;33824;51.600;5.718;2022-08-19T09:44:28;101254.06;;;26.78;58.32
48053;BME280;33824;51.600;5.718;2022-08-19T09:46:54;101262.03;;;27.00;57.55
48053;BME280;33824;51.600;5.718;2022-08-19T09:49:21;101261.47;;;27.13;56.37
48053;BME280;33824;51.600;5.718;2022-08-19T09:51:51;101264.78;;;27.15;57.66
48053;BME280;33824;51.600;5.718;2022-08-19T09:54:17;101268.06;;;26.97;57.57
48053;BME280;33824;51.600;5.718;2022-08-19T09:56:43;101269.13;;;26.96;58.03
48053;BME280;33824;51.600;5.718;2022-08-19T09:59:10;101275.69;;;26.85;57.25
48053;BME280;33824;51.600;5.718;2022-08-19T10:01:37;101282.50;;;26.82;58.01
48053;BME280;33824;51.600;5.718;2022-08-19T10:04:03;101279.22;;;26.80;57.85
48053;BME280;33824;51.600;5.718;2022-08-19T10:06:37;101279.41;;;26.53;56.99
48053;BME280;33824;51.600;5.718;2022-08-19T10:09:04;101278.84;;;26.36;57.39
48053;BME280;33824;51.600;5.718;2022-08-19T10:11:32;101289.53;;;26.48;57.33
48053;BME280;33824;51.600;5.718;2022-08-19T10:13:58;101295.22;;;26.41;57.72
48053;BME280;33824;51.600;5.718;2022-08-19T10:16:26;101295.75;;;26.28;58.37
48053;BME280;33824;51.600;5.718;2022-08-19T10:18:52;101280.78;;;26.51;57.84
48053;BME280;33824;51.600;5.718;2022-08-19T10:21:25;101284.03;;;26.43;58.09
48053;BME280;33824;51.600;5.718;2022-08-19T10:23:53;101281.59;;;26.46;58.37
48053;BME280;33824;51.600;5.718;2022-08-19T10:26:22;101282.28;;;26.16;58.26
48053;BME280;33824;51.600;5.718;2022-08-19T10:28:49;101286.16;;;26.20;58.40
48053;BME280;33824;51.600;5.718;2022-08-19T10:31:18;101282.19;;;26.58;58.67
48053;BME280;33824;51.600;5.718;2022-08-19T10:33:46;101286.09;;;26.88;58.26
48053;BME280;33824;51.600;5.718;2022-08-19T10:36:16;101289.84;;;26.71;57.65
48053;BME280;33824;51.600;5.718;2022-08-19T10:38:44;101279.94;;;26.45;57.95
48053;BME280;33824;51.600;5.718;2022-08-19T10:41:16;101280.28;;;26.69;57.92
48053;BME280;33824;51.600;5.718;2022-08-19T10:43:43;101274.00;;;26.73;57.87
48053;BME280;33824;51.600;5.718;2022-08-19T10:46:13;101279.75;;;26.67;57.91
48053;BME280;33824;51.600;5.718;2022-08-19T10:48:40;101271.78;;;26.55;57.50
48053;BME280;33824;51.600;5.718;2022-08-19T10:51:06;101270.97;;;26.65;57.96
48053;BME280;33824;51.600;5.718;2022-08-19T10:53:51;101261.47;;;27.03;56.38
48053;BME280;33824;51.600;5.718;2022-08-19T10:56:17;101266.94;;;27.43;54.32
48053;BME280;33824;51.600;5.718;2022-08-19T10:59:03;101256.28;;;27.11;55.61
48053;BME280;33824;51.600;5.718;2022-08-19T11:01:29;101264.19;;;27.58;55.07
48053;BME280;33824;51.600;5.718;2022-08-19T11:03:56;101264.16;;;27.89;54.99
48053;BME280;33824;51.600;5.718;2022-08-19T11:06:23;101263.06;;;27.75;54.18
48053;BME280;33824;51.600;5.718;2022-08-19T11:08:50;101263.66;;;27.21;55.54
48053;BME280;33824;51.600;5.718;2022-08-19T11:11:16;101260.41;;;27.04;56.03
48053;BME280;33824;51.600;5.718;2022-08-19T11:13:43;101269.94;;;26.91;55.97
48053;BME280;33824;51.600;5.718;2022-08-19T11:16:19;101270.53;;;27.18;54.27
48053;BME280;33824;51.600;5.718;2022-08-19T11:18:49;101263.63;;;27.77;54.03
48053;BME280;33824;51.600;5.718;2022-08-19T11:21:26;101269.97;;;27.62;53.20
48053;BME280;33824;51.600;5.718;2022-08-19T11:23:55;101271.91;;;27.46;52.05
48053;BME280;33824;51.600;5.718;2022-08-19T11:26:21;101265.88;;;27.54;53.12
48053;BME280;33824;51.600;5.718;2022-08-19T11:28:47;101266.97;;;27.48;53.84
48053;BME280;33824;51.600;5.718;2022-08-19T11:31:19;101263.66;;;27.56;53.30
48053;BME280;33824;51.600;5.718;2022-08-19T11:33:45;101255.88;;;28.09;52.75
48053;BME280;33824;51.600;5.718;2022-08-19T11:36:12;101252.38;;;28.52;52.16
48053;BME280;33824;51.600;5.718;2022-08-19T11:38:38;101254.72;;;28.20;51.72
48053;BME280;33824;51.600;5.718;2022-08-19T11:41:06;101253.53;;;27.62;52.33
48053;BME280;33824;51.600;5.718;2022-08-19T11:43:36;101262.03;;;27.60;52.92
48053;BME280;33824;51.600;5.718;2022-08-19T11:46:09;101254.38;;;27.47;53.30
48053;BME280;33824;51.600;5.718;2022-08-19T11:48:36;101255.88;;;27.99;53.09
48053;BME280;33824;51.600;5.718;2022-08-19T11:51:15;101252.25;;;28.24;51.86
48053;BME280;33824;51.600;5.718;2022-08-19T11:53:41;101250.63;;;28.67;51.30
48053;BME280;33824;51.600;5.718;2022-08-19T11:56:08;101237.78;;;29.01;49.48
48053;BME280;33824;51.600;5.718;2022-08-19T11:58:34;101254.72;;;28.74;49.70
48053;BME280;33824;51.600;5.718;2022-08-19T12:01:00;101252.84;;;28.65;50.45
48053;BME280;33824;51.600;5.718;2022-08-19T12:03:25;101242.69;;;28.70;50.72
48053;BME280;33824;51.600;5.718;2022-08-19T12:05:53;101250.34;;;28.73;50.14
48053;BME280;33824;51.600;5.718;2022-08-19T12:08:19;101248.84;;;28.47;50.25
48053;BME280;33824;51.600;5.718;2022-08-19T12:10:44;101254.47;;;28.22;50.71
48053;BME280;33824;51.600;5.718;2022-08-19T12:13:12;101249.16;;;28.35;50.80
48053;BME280;33824;51.600;5.718;2022-08-19T12:15:40;101246.91;;;28.47;50.81
48053;BME280;33824;51.600;5.718;2022-08-19T12:18:07;101245.25;;;28.46;50.02
48053;BME280;33824;51.600;5.718;2022-08-19T12:20:35;101252.28;;;28.68;49.47
48053;BME280;33824;51.600;5.718;2022-08-19T12:23:01;101253.38;;;28.72;48.88
48053;BME280;33824;51.600;5.718;2022-08-19T12:25:27;101250.44;;;28.97;48.39
48053;BME280;33824;51.600;5.718;2022-08-19T12:27:52;101247.78;;;28.87;48.52
48053;BME280;33824;51.600;5.718;2022-08-19T12:30:18;101238.50;;;28.78;48.48
48053;BME280;33824;51.600;5.718;2022-08-19T12:32:44;101241.13;;;28.98;47.92
48053;BME280;33824;51.600;5.718;2022-08-19T12:35:09;101241.81;;;28.80;48.88
48053;BME280;33824;51.600;5.718;2022-08-19T12:37:36;101244.06;;;28.63;49.71
48053;BME280;33824;51.600;5.718;2022-08-19T12:40:02;101242.50;;;28.51;49.37
48053;BME280;33824;51.600;5.718;2022-08-19T12:42:28;101241.84;;;28.75;49.21
48053;BME280;33824;51.600;5.718;2022-08-19T12:44:54;101234.91;;;28.82;49.38
48053;BME280;33824;51.600;5.718;2022-08-19T12:47:20;101235.13;;;28.91;48.83
48053;BME280;33824;51.600;5.718;2022-08-19T12:49:46;101236.22;;;29.24;49.73
48053;BME280;33824;51.600;5.718;2022-08-19T12:52:12;101235.69;;;29.22;48.88
48053;BME280;33824;51.600;5.718;2022-08-19T12:54:41;101235.50;;;29.13;49.26
48053;BME280;33824;51.600;5.718;2022-08-19T12:57:09;101223.59;;;29.23;48.61
48053;BME280;33824;51.600;5.718;2022-08-19T12:59:36;101218.53;;;29.06;48.76
48053;BME280;33824;51.600;5.718;2022-08-19T13:02:04;101210.91;;;28.98;48.81
48053;BME280;33824;51.600;5.718;2022-08-19T13:04:31;101209.63;;;28.85;49.42
48053;BME280;33824;51.600;5.718;2022-08-19T13:06:58;101211.25;;;29.20;49.29